Desha, Arkansas
Current Conditions -  °F | °C
As of 4:15 PM on Monday 20 Oct 2014 (Local Time) from KBVX Reporting Station
Broken Clouds Broken Clouds  
Wind Chill: 73°   Ceiling: 7500
Heat Index: 73°   Visibility: 10mi
Dew Point: 57°   Wind: 6mph
Humidity: 57%   Direction: 240°WSW
Pressure: 29.99"   Gusts: NA
Location:  35.74°N, 91.68°W
Report Text: KBVX 202115Z AUTO 24005KT 10SM BKN075 23/14 A2999 RMK AO1
Loading
Personal Weather Stations






























Interactive Weather Map
Tropical Storm Tracking
New forecast layout! Learn more

10-Day Weather Forecast

Advertisements
Track Severe Weather on mobile